createdAt,value
2019-03-20T00:00:13.746Z,184.33
2019-03-20T00:03:22.792Z,187.23
2019-03-20T00:06:30.354Z,169.63
2019-03-20T00:09:37.914Z,180.77
2019-03-20T00:12:45.427Z,153.90
2019-03-20T00:15:52.947Z,150.10
2019-03-20T00:19:00.484Z,118.73
2019-03-20T00:22:08.136Z,124.17
2019-03-20T00:25:15.938Z,119.20
2019-03-20T00:28:25.397Z,98.23
2019-03-20T00:31:32.940Z,103.03
2019-03-20T00:34:40.566Z,112.23
2019-03-20T00:37:48.550Z,108.90
2019-03-20T00:40:56.117Z,102.07
2019-03-20T00:44:03.668Z,108.97
2019-03-20T00:47:11.089Z,109.00
2019-03-20T00:50:19.626Z,108.40
2019-03-20T00:53:27.093Z,114.70
2019-03-20T00:56:34.646Z,92.27
2019-03-20T00:59:42.066Z,87.70
2019-03-20T01:02:49.543Z,89.17
2019-03-20T01:05:56.991Z,86.83
2019-03-20T01:09:05.184Z,88.07
2019-03-20T01:12:12.713Z,91.13
2019-03-20T01:15:20.382Z,88.47
2019-03-20T01:18:27.855Z,94.03
2019-03-20T01:21:35.364Z,98.00
2019-03-20T01:24:42.829Z,98.10
2019-03-20T01:27:50.356Z,99.03
2019-03-20T01:30:57.882Z,94.80
2019-03-20T01:34:05.362Z,85.30
2019-03-20T01:37:12.954Z,86.13
2019-03-20T01:40:20.447Z,94.90
2019-03-20T01:43:27.900Z,124.50
2019-03-20T01:46:35.954Z,101.97
2019-03-20T01:49:43.464Z,96.53
2019-03-20T01:52:51.022Z,90.73
2019-03-20T01:56:01.596Z,88.43
2019-03-20T01:59:09.124Z,91.93
2019-03-20T02:02:16.578Z,85.50
2019-03-20T02:05:34.712Z,92.70
2019-03-20T02:08:33.108Z,82.67
2019-03-20T02:11:40.622Z,84.27
2019-03-20T02:14:48.088Z,86.50
2019-03-20T02:17:55.551Z,82.07
2019-03-20T02:21:03.828Z,81.33
2019-03-20T02:24:11.334Z,75.30
2019-03-20T02:27:18.875Z,88.57
2019-03-20T02:30:26.441Z,118.37
2019-03-20T02:33:33.896Z,131.60
2019-03-20T02:36:41.416Z,120.27
2019-03-20T02:39:48.837Z,106.13
2019-03-20T02:42:56.812Z,101.80
2019-03-20T02:46:04.382Z,96.43
2019-03-20T02:49:11.815Z,93.10
2019-03-20T02:52:19.270Z,96.77
2019-03-20T02:55:26.693Z,85.23
2019-03-20T02:58:34.211Z,83.23
2019-03-20T03:01:41.793Z,83.53
2019-03-20T03:04:49.249Z,80.77
2019-03-20T03:07:56.904Z,82.43
2019-03-20T03:11:05.236Z,84.70
2019-03-20T03:14:13.246Z,88.77
2019-03-20T03:17:20.710Z,98.30
2019-03-20T03:20:29.014Z,95.37
2019-03-20T03:23:36.440Z,104.30
2019-03-20T03:26:44.069Z,115.93
2019-03-20T03:29:51.509Z,110.17
2019-03-20T03:32:58.997Z,116.40
2019-03-20T03:36:20.253Z,106.60
2019-03-20T03:39:15.758Z,107.97
2019-03-20T03:42:23.193Z,112.10
2019-03-20T03:45:30.720Z,131.57
2019-03-20T03:48:38.182Z,147.17
2019-03-20T03:51:45.722Z,131.93
2019-03-20T03:54:53.245Z,141.13
2019-03-20T03:58:00.706Z,143.97
2019-03-20T04:01:08.142Z,144.40
2019-03-20T04:04:15.641Z,132.57
2019-03-20T04:07:23.819Z,138.23
2019-03-20T04:10:31.643Z,176.87
2019-03-20T04:13:39.136Z,187.60
2019-03-20T04:16:47.040Z,354.90
2019-03-20T04:19:54.586Z,345.73
2019-03-20T04:23:02.054Z,221.97
2019-03-20T04:26:09.606Z,216.70
2019-03-20T04:29:17.142Z,161.70
2019-03-20T04:32:24.655Z,154.33
2019-03-20T04:35:32.184Z,181.80
2019-03-20T04:38:39.736Z,187.10
2019-03-20T04:41:47.184Z,311.70
2019-03-20T04:44:54.747Z,283.70
2019-03-20T04:48:02.255Z,211.57
2019-03-20T04:51:09.745Z,214.13
2019-03-20T04:54:17.307Z,196.70
2019-03-20T04:57:24.811Z,156.43
2019-03-20T05:00:32.316Z,154.70
2019-03-20T05:03:39.811Z,177.47
2019-03-20T05:06:57.992Z,186.73
2019-03-20T05:09:56.645Z,175.50
2019-03-20T05:13:04.194Z,188.27
2019-03-20T05:16:11.697Z,178.33
2019-03-20T05:19:19.660Z,194.33
2019-03-20T05:22:27.216Z,197.37
2019-03-20T05:25:34.758Z,198.30
2019-03-20T05:28:42.205Z,202.17
2019-03-20T05:31:49.657Z,195.17
2019-03-20T05:34:57.114Z,190.10
2019-03-20T05:38:04.835Z,171.83
2019-03-20T05:41:12.453Z,176.13
2019-03-20T05:44:19.972Z,154.10
2019-03-20T05:47:27.438Z,161.27
2019-03-20T05:50:36.135Z,141.33
2019-03-20T05:53:43.919Z,126.00
2019-03-20T05:56:52.985Z,128.37
2019-03-20T06:00:00.571Z,137.10
2019-03-20T06:03:08.051Z,124.37
2019-03-20T06:06:15.836Z,130.67
2019-03-20T06:09:23.410Z,114.70
2019-03-20T06:12:30.955Z,97.77
2019-03-20T06:15:38.529Z,105.77
2019-03-20T06:18:46.093Z,97.63
2019-03-20T06:21:54.538Z,87.43
2019-03-20T06:25:02.194Z,85.93
2019-03-20T06:28:09.838Z,72.47
2019-03-20T06:31:18.869Z,64.77
2019-03-20T06:34:26.521Z,56.50
2019-03-20T06:37:34.015Z,49.33
2019-03-20T06:40:42.445Z,51.83
2019-03-20T06:43:49.870Z,55.47
2019-03-20T06:46:57.327Z,56.50
2019-03-20T06:50:05.136Z,58.47
2019-03-20T06:53:12.760Z,58.90
2019-03-20T06:56:20.304Z,56.73
2019-03-20T07:00:11.931Z,52.83
2019-03-20T07:03:23.699Z,57.17
2019-03-20T07:06:47.677Z,45.67
2019-03-20T07:10:11.627Z,40.60
2019-03-20T07:13:19.183Z,41.67
2019-03-20T07:16:26.665Z,36.77
2019-03-20T07:19:34.143Z,36.03
2019-03-20T07:22:41.781Z,62.27
2019-03-20T07:25:49.219Z,48.00
2019-03-20T07:28:56.625Z,48.93
2019-03-20T07:32:04.305Z,45.60
2019-03-20T07:35:11.848Z,49.00
2019-03-20T07:38:19.342Z,37.50
2019-03-20T07:41:26.833Z,36.23
2019-03-20T07:44:34.285Z,33.13
2019-03-20T07:47:41.726Z,29.43
2019-03-20T07:50:49.288Z,35.30
2019-03-20T07:53:56.772Z,32.97
2019-03-20T07:57:04.379Z,25.80
2019-03-20T08:00:13.711Z,29.83
2019-03-20T08:03:21.287Z,29.53
2019-03-20T08:06:28.719Z,32.70
2019-03-20T08:09:36.348Z,35.80
2019-03-20T08:12:43.941Z,30.07
2019-03-20T08:15:51.410Z,28.53
2019-03-20T08:18:58.959Z,29.03
2019-03-20T08:22:06.425Z,24.27
2019-03-20T08:25:14.345Z,31.43
2019-03-20T08:28:22.052Z,20.80
2019-03-20T08:31:29.639Z,15.97
2019-03-20T08:34:37.139Z,13.80
2019-03-20T08:37:44.731Z,6.83
2019-03-20T08:40:52.197Z,16.80
2019-03-20T08:43:59.647Z,10.83
2019-03-20T08:47:07.136Z,7.60
2019-03-20T08:50:18.051Z,8.90
2019-03-20T08:53:25.597Z,14.70
2019-03-20T08:56:33.193Z,17.10
2019-03-20T08:59:40.769Z,10.60
2019-03-20T09:02:48.286Z,10.60
2019-03-20T09:05:55.800Z,11.40
2019-03-20T09:09:03.369Z,8.77
2019-03-20T09:12:11.107Z,12.30
2019-03-20T09:15:18.857Z,12.73
2019-03-20T09:18:26.746Z,16.43
2019-03-20T09:21:35.293Z,11.90
2019-03-20T09:24:42.802Z,8.80
2019-03-20T09:27:50.409Z,14.50
2019-03-20T09:30:57.964Z,13.57
2019-03-20T09:34:05.606Z,11.03
2019-03-20T09:37:13.267Z,15.50
2019-03-20T09:40:23.486Z,17.43
2019-03-20T09:43:30.429Z,16.50
2019-03-20T09:46:38.020Z,11.10
2019-03-20T09:49:45.613Z,11.00
2019-03-20T09:52:53.159Z,11.23
2019-03-20T09:56:00.635Z,12.90
2019-03-20T09:59:08.143Z,13.60
2019-03-20T10:02:16.117Z,13.87
2019-03-20T10:05:23.881Z,14.30
2019-03-20T10:08:31.453Z,15.00
2019-03-20T10:11:39.121Z,43.53
2019-03-20T10:14:46.686Z,16.53
2019-03-20T10:17:54.143Z,11.70
2019-03-20T10:21:01.601Z,17.77
2019-03-20T10:24:09.685Z,16.13
2019-03-20T10:27:17.139Z,15.27
2019-03-20T10:30:24.839Z,10.87
2019-03-20T10:33:32.369Z,9.00
2019-03-20T10:36:39.856Z,9.60
2019-03-20T10:39:47.381Z,9.57
2019-03-20T10:42:55.196Z,9.63
2019-03-20T10:46:02.926Z,8.63
2019-03-20T10:49:10.562Z,11.87
2019-03-20T10:52:18.184Z,7.50
2019-03-20T10:55:25.771Z,8.13
2019-03-20T10:58:33.603Z,9.43
2019-03-20T11:01:42.818Z,8.43
2019-03-20T11:04:50.473Z,6.83
2019-03-20T11:07:58.052Z,9.73
2019-03-20T11:11:05.766Z,6.43
2019-03-20T11:14:13.253Z,13.10
2019-03-20T11:17:20.809Z,7.10
2019-03-20T11:20:28.404Z,8.03
2019-03-20T11:23:35.895Z,11.30
2019-03-20T11:26:43.357Z,10.93
2019-03-20T11:29:50.870Z,7.57
2019-03-20T11:32:58.496Z,7.80
2019-03-20T11:36:06.050Z,9.87
2019-03-20T11:39:13.625Z,10.33
2019-03-20T11:42:21.262Z,14.37
2019-03-20T11:45:28.937Z,23.43
2019-03-20T11:48:36.554Z,18.50
2019-03-20T11:51:44.052Z,18.40
2019-03-20T11:54:51.569Z,17.40
2019-03-20T11:57:59.448Z,17.07
2019-03-20T12:01:07.088Z,17.63
2019-03-20T12:04:14.919Z,15.50
2019-03-20T12:07:22.574Z,16.97
2019-03-20T12:10:30.179Z,11.70
2019-03-20T12:13:37.684Z,15.43
2019-03-20T12:16:45.388Z,11.80
2019-03-20T12:19:52.980Z,14.90
2019-03-20T12:23:00.522Z,17.20
2019-03-20T12:26:08.098Z,10.37
2019-03-20T12:29:15.887Z,8.60
2019-03-20T12:32:23.631Z,9.40
2019-03-20T12:35:31.975Z,8.60
2019-03-20T12:38:39.505Z,9.87
2019-03-20T12:41:46.986Z,12.77
2019-03-20T12:44:54.544Z,10.73
2019-03-20T12:48:02.153Z,12.10
2019-03-20T12:51:09.723Z,11.70
2019-03-20T12:54:17.257Z,10.27
2019-03-20T12:57:24.804Z,10.10
2019-03-20T13:00:33.924Z,10.67
2019-03-20T13:03:41.490Z,10.40
2019-03-20T13:06:48.970Z,10.53
2019-03-20T13:10:03.158Z,12.10
2019-03-20T13:13:05.824Z,11.23
2019-03-20T13:16:13.627Z,11.53
2019-03-20T13:19:22.269Z,8.67
2019-03-20T13:22:30.138Z,9.40
2019-03-20T13:25:37.912Z,8.23
2019-03-20T13:28:45.653Z,6.60
2019-03-20T13:31:53.068Z,6.73
2019-03-20T13:35:00.685Z,7.13
2019-03-20T13:38:08.376Z,7.87
2019-03-20T13:41:16.140Z,6.77
2019-03-20T13:44:23.606Z,11.37
2019-03-20T13:47:31.316Z,17.70
2019-03-20T13:50:40.463Z,8.97
2019-03-20T13:53:47.967Z,14.70
2019-03-20T13:56:55.600Z,18.77
2019-03-20T14:00:03.098Z,13.37
2019-03-20T14:03:12.135Z,8.70
2019-03-20T14:06:19.684Z,12.80
2019-03-20T14:09:27.654Z,9.97
2019-03-20T14:12:35.424Z,9.63
2019-03-20T14:15:44.972Z,12.30
2019-03-20T14:18:52.449Z,8.07
2019-03-20T14:21:59.941Z,7.77
2019-03-20T14:25:07.937Z,9.43
2019-03-20T14:28:15.535Z,10.00
2019-03-20T14:31:23.167Z,11.00
2019-03-20T14:34:30.627Z,8.70
2019-03-20T14:37:38.131Z,18.37
2019-03-20T14:40:45.966Z,15.73
2019-03-20T14:43:53.480Z,12.70
2019-03-20T14:47:01.062Z,21.30
2019-03-20T14:50:10.417Z,19.70
2019-03-20T14:53:17.992Z,15.40
2019-03-20T14:56:25.464Z,8.07
2019-03-20T14:59:33.058Z,12.60
2019-03-20T15:02:40.687Z,16.23
2019-03-20T15:05:48.172Z,9.73
2019-03-20T15:08:56.788Z,9.00
2019-03-20T15:12:04.387Z,6.50
2019-03-20T15:15:16.399Z,8.00
2019-03-20T15:18:24.011Z,9.93
2019-03-20T15:21:31.623Z,7.00
2019-03-20T15:24:39.350Z,8.70
2019-03-20T15:27:47.047Z,9.67
2019-03-20T15:30:54.568Z,14.73
2019-03-20T15:34:03.188Z,18.40
2019-03-20T15:37:10.601Z,46.43
2019-03-20T15:40:18.282Z,16.03
2019-03-20T15:43:25.842Z,19.07
2019-03-20T15:46:34.474Z,37.40
2019-03-20T15:49:41.914Z,33.17
2019-03-20T15:52:49.604Z,30.23
2019-03-20T15:55:57.534Z,11.20
2019-03-20T15:59:05.129Z,13.00
2019-03-20T16:02:12.572Z,12.17
2019-03-20T16:05:20.133Z,33.27
2019-03-20T16:08:27.883Z,28.10
2019-03-20T16:11:35.591Z,31.43
2019-03-20T16:14:45.458Z,34.27
2019-03-20T16:17:53.181Z,23.43
2019-03-20T16:21:00.748Z,12.93
2019-03-20T16:24:08.295Z,21.57
2019-03-20T16:27:15.877Z,24.10
2019-03-20T16:30:23.826Z,15.37
2019-03-20T16:33:31.363Z,13.20
2019-03-20T16:36:38.948Z,16.33
2019-03-20T16:39:46.540Z,14.97
2019-03-20T16:42:54.043Z,15.40
2019-03-20T16:46:01.768Z,17.50
2019-03-20T16:49:09.288Z,15.00
2019-03-20T16:52:16.862Z,16.77
2019-03-20T16:55:24.571Z,20.90
2019-03-20T16:58:32.268Z,20.20
2019-03-20T17:01:40.956Z,25.20
2019-03-20T17:04:48.589Z,30.80
2019-03-20T17:07:56.262Z,36.47
2019-03-20T17:11:03.792Z,42.53
2019-03-20T17:14:11.255Z,48.17
2019-03-20T17:17:18.823Z,56.70
2019-03-20T17:20:26.328Z,118.70
2019-03-20T17:23:33.902Z,108.80
2019-03-20T17:26:42.590Z,110.20
2019-03-20T17:29:50.074Z,111.20
2019-03-20T17:32:58.616Z,112.00
2019-03-20T17:36:06.288Z,120.70
2019-03-20T17:39:13.896Z,117.90
2019-03-20T17:42:21.326Z,109.33
2019-03-20T17:45:29.374Z,141.93
2019-03-20T17:48:38.105Z,163.50
2019-03-20T17:51:45.639Z,188.13
2019-03-20T17:54:53.286Z,247.03
2019-03-20T17:58:00.860Z,238.03
2019-03-20T18:01:08.367Z,194.60
2019-03-20T18:04:15.976Z,176.83
2019-03-20T18:07:23.488Z,156.00
2019-03-20T18:10:33.107Z,201.63
2019-03-20T18:13:40.342Z,253.60
2019-03-20T18:16:47.919Z,245.10
2019-03-20T18:19:56.440Z,191.20
2019-03-20T18:23:05.168Z,192.70
2019-03-20T18:26:13.955Z,365.17
2019-03-20T18:29:21.521Z,230.57
2019-03-20T18:32:29.307Z,221.63
2019-03-20T18:35:37.905Z,197.43
2019-03-20T18:38:45.850Z,206.40
2019-03-20T18:41:57.737Z,226.33
2019-03-20T18:45:02.747Z,188.10
2019-03-20T18:48:10.400Z,181.90
2019-03-20T18:51:18.016Z,173.97
2019-03-20T18:54:25.568Z,203.10
2019-03-20T18:57:33.705Z,206.70
2019-03-20T19:00:41.156Z,199.43
2019-03-20T19:03:48.758Z,225.73
2019-03-20T19:06:56.387Z,268.73
2019-03-20T19:10:03.934Z,330.00
2019-03-20T19:13:11.573Z,324.57
2019-03-20T19:16:19.413Z,279.20
2019-03-20T19:19:27.622Z,315.17
2019-03-20T19:22:35.204Z,368.47
2019-03-20T19:25:42.918Z,352.60
2019-03-20T19:28:50.394Z,370.07
2019-03-20T19:31:57.993Z,442.40
2019-03-20T19:35:06.646Z,443.87
2019-03-20T19:38:14.414Z,375.37
2019-03-20T19:41:21.938Z,438.13
2019-03-20T19:44:29.537Z,282.53
2019-03-20T19:47:37.085Z,196.27
2019-03-20T19:50:44.669Z,171.97
2019-03-20T19:53:52.522Z,174.07
2019-03-20T19:57:00.070Z,193.03
2019-03-20T20:00:11.063Z,157.67
2019-03-20T20:03:19.820Z,156.03
2019-03-20T20:06:27.385Z,156.33
2019-03-20T20:09:34.899Z,177.20
2019-03-20T20:12:42.555Z,214.13
2019-03-20T20:15:50.200Z,241.03
2019-03-20T20:18:57.753Z,262.50
2019-03-20T20:22:05.303Z,249.93
2019-03-20T20:25:12.809Z,203.07
2019-03-20T20:28:20.431Z,226.70
2019-03-20T20:31:27.970Z,152.53
2019-03-20T20:34:36.749Z,130.53
2019-03-20T20:37:44.500Z,124.57
2019-03-20T20:40:52.026Z,124.87
2019-03-20T20:43:59.624Z,132.40
2019-03-20T20:47:07.279Z,135.90
2019-03-20T20:50:14.950Z,124.00
2019-03-20T20:53:22.617Z,116.77
2019-03-20T20:56:30.163Z,83.90
2019-03-20T20:59:37.755Z,91.80
2019-03-20T21:02:45.382Z,88.60
2019-03-20T21:05:52.924Z,70.10
2019-03-20T21:09:00.389Z,64.60
2019-03-20T21:12:08.365Z,72.07
2019-03-20T21:15:37.258Z,77.23
2019-03-20T21:19:20.711Z,84.00
2019-03-20T21:23:04.768Z,79.67
2019-03-20T21:26:13.495Z,85.60
2019-03-20T21:29:56.258Z,80.00
2019-03-20T21:33:05.611Z,93.93
2019-03-20T21:37:21.429Z,109.43
2019-03-20T21:40:30.189Z,113.43
2019-03-20T21:44:30.311Z,112.87
2019-03-20T21:47:36.715Z,112.00
2019-03-20T21:51:10.872Z,107.17
2019-03-20T21:55:02.272Z,118.60
2019-03-20T21:58:16.412Z,116.60
2019-03-20T22:02:06.230Z,120.57
2019-03-20T22:05:23.283Z,119.07
2019-03-20T22:08:30.506Z,116.03
2019-03-20T22:12:17.226Z,115.70
2019-03-20T22:15:53.670Z,122.30
2019-03-20T22:19:45.064Z,134.10
2019-03-20T22:23:34.658Z,130.67
2019-03-20T22:27:17.689Z,129.23
2019-03-20T22:30:26.272Z,115.50
2019-03-20T22:34:09.575Z,99.30
2019-03-20T22:37:18.590Z,87.83
2019-03-20T22:41:01.786Z,71.90
2019-03-20T22:44:10.484Z,85.83
2019-03-20T22:47:54.106Z,78.80
2019-03-20T22:51:39.694Z,76.90
2019-03-20T22:55:26.680Z,70.63
2019-03-20T22:58:48.285Z,76.90
2019-03-20T23:02:27.181Z,72.60
2019-03-20T23:05:35.813Z,80.97
2019-03-20T23:08:44.450Z,76.40
2019-03-20T23:11:53.196Z,69.50
2019-03-20T23:15:01.836Z,67.30
2019-03-20T23:18:11.739Z,72.07
2019-03-20T23:21:20.298Z,64.30
2019-03-20T23:24:28.840Z,60.93
2019-03-20T23:27:37.646Z,61.73
2019-03-20T23:30:46.608Z,63.00
2019-03-20T23:33:55.199Z,63.43
2019-03-20T23:37:05.081Z,64.80
2019-03-20T23:40:15.109Z,62.93
2019-03-20T23:43:24.988Z,68.03
2019-03-20T23:46:33.806Z,62.53
2019-03-20T23:49:42.864Z,65.43
2019-03-20T23:52:51.452Z,64.93
2019-03-20T23:56:00.188Z,62.10
2019-03-20T23:59:09.194Z,61.83
